sensor_id;sensor_type;location;lat;lon;timestamp;pressure;altitude;pressure_sealevel;temperature;humidity
6090;BME280;3073;42.660;23.316;2023-03-21T00:01:24;94369.78;;;11.11;83.71
6090;BME280;3073;42.660;23.316;2023-03-21T00:03:51;94374.69;;;11.18;85.90
6090;BME280;3073;42.660;23.316;2023-03-21T00:06:18;94374.47;;;11.19;85.06
6090;BME280;3073;42.660;23.316;2023-03-21T00:08:46;94372.19;;;11.23;85.43
6090;BME280;3073;42.660;23.316;2023-03-21T00:11:13;94374.59;;;11.08;87.34
6090;BME280;3073;42.660;23.316;2023-03-21T00:13:42;94371.38;;;10.91;89.33
6090;BME280;3073;42.660;23.316;2023-03-21T00:16:11;94368.09;;;10.95;90.90
6090;BME280;3073;42.660;23.316;2023-03-21T00:18:40;94367.38;;;11.00;92.67
6090;BME280;3073;42.660;23.316;2023-03-21T00:21:09;94365.81;;;10.94;93.14
6090;BME280;3073;42.660;23.316;2023-03-21T00:23:37;94363.44;;;10.87;95.00
6090;BME280;3073;42.660;23.316;2023-03-21T00:26:04;94366.56;;;10.94;95.19
6090;BME280;3073;42.660;23.316;2023-03-21T00:28:34;94365.16;;;10.81;97.35
6090;BME280;3073;42.660;23.316;2023-03-21T00:31:03;94366.94;;;10.81;97.76
6090;BME280;3073;42.660;23.316;2023-03-21T00:33:31;94367.19;;;10.79;98.83
6090;BME280;3073;42.660;23.316;2023-03-21T00:35:59;94375.44;;;10.87;98.21
6090;BME280;3073;42.660;23.316;2023-03-21T00:38:27;94365.22;;;10.87;98.64
6090;BME280;3073;42.660;23.316;2023-03-21T00:40:54;94372.19;;;10.96;98.06
6090;BME280;3073;42.660;23.316;2023-03-21T00:43:21;94372.81;;;10.81;99.20
6090;BME280;3073;42.660;23.316;2023-03-21T00:45:55;94369.56;;;11.13;97.47
6090;BME280;3073;42.660;23.316;2023-03-21T00:48:24;94373.16;;;11.17;96.48
6090;BME280;3073;42.660;23.316;2023-03-21T00:50:53;94362.81;;;11.02;97.07
6090;BME280;3073;42.660;23.316;2023-03-21T00:53:20;94366.75;;;11.14;96.15
6090;BME280;3073;42.660;23.316;2023-03-21T00:55:48;94360.19;;;11.23;95.40
6090;BME280;3073;42.660;23.316;2023-03-21T00:58:15;94357.88;;;11.22;95.16
6090;BME280;3073;42.660;23.316;2023-03-21T01:00:44;94359.44;;;11.23;95.11
6090;BME280;3073;42.660;23.316;2023-03-21T01:03:13;94357.84;;;11.17;95.97
6090;BME280;3073;42.660;23.316;2023-03-21T01:05:44;94358.72;;;11.01;97.58
6090;BME280;3073;42.660;23.316;2023-03-21T01:08:28;94356.19;;;10.79;99.49
6090;BME280;3073;42.660;23.316;2023-03-21T01:10:55;94361.13;;;10.85;100.00
6090;BME280;3073;42.660;23.316;2023-03-21T01:13:24;94366.19;;;10.80;100.00
6090;BME280;3073;42.660;23.316;2023-03-21T01:15:52;94360.81;;;10.82;100.00
6090;BME280;3073;42.660;23.316;2023-03-21T01:18:21;94357.00;;;10.84;100.00
6090;BME280;3073;42.660;23.316;2023-03-21T01:20:51;94356.97;;;10.79;100.00
6090;BME280;3073;42.660;23.316;2023-03-21T01:23:18;94355.19;;;10.80;100.00
6090;BME280;3073;42.660;23.316;2023-03-21T01:25:46;94351.69;;;10.86;99.65
6090;BME280;3073;42.660;23.316;2023-03-21T01:28:13;94359.63;;;10.90;98.89
6090;BME280;3073;42.660;23.316;2023-03-21T01:30:44;94359.19;;;10.98;98.70
6090;BME280;3073;42.660;23.316;2023-03-21T01:33:11;94364.47;;;10.64;100.00
6090;BME280;3073;42.660;23.316;2023-03-21T01:35:38;94355.78;;;10.60;100.00
6090;BME280;3073;42.660;23.316;2023-03-21T01:38:07;94361.94;;;10.43;100.00
6090;BME280;3073;42.660;23.316;2023-03-21T01:40:35;94354.88;;;10.50;100.00
6090;BME280;3073;42.660;23.316;2023-03-21T01:43:03;94353.03;;;10.45;100.00
6090;BME280;3073;42.660;23.316;2023-03-21T01:48:47;94355.28;;;10.20;100.00
6090;BME280;3073;42.660;23.316;2023-03-21T01:51:16;94353.75;;;10.19;100.00
6090;BME280;3073;42.660;23.316;2023-03-21T01:53:46;94352.03;;;10.08;100.00
6090;BME280;3073;42.660;23.316;2023-03-21T01:56:19;94354.53;;;10.03;100.00
6090;BME280;3073;42.660;23.316;2023-03-21T01:58:49;94350.34;;;9.75;100.00
6090;BME280;3073;42.660;23.316;2023-03-21T02:01:17;94345.66;;;9.67;100.00
6090;BME280;3073;42.660;23.316;2023-03-21T02:03:47;94356.00;;;9.60;100.00
6090;BME280;3073;42.660;23.316;2023-03-21T02:06:28;94346.66;;;9.49;100.00
6090;BME280;3073;42.660;23.316;2023-03-21T02:09:01;94352.59;;;9.38;100.00
6090;BME280;3073;42.660;23.316;2023-03-21T02:11:29;94348.59;;;9.42;100.00
6090;BME280;3073;42.660;23.316;2023-03-21T02:13:57;94341.03;;;9.47;100.00
6090;BME280;3073;42.660;23.316;2023-03-21T02:16:35;94335.53;;;9.55;100.00
6090;BME280;3073;42.660;23.316;2023-03-21T02:19:29;94331.00;;;9.57;100.00
6090;BME280;3073;42.660;23.316;2023-03-21T02:22:25;94336.53;;;9.54;100.00
6090;BME280;3073;42.660;23.316;2023-03-21T02:25:11;94333.63;;;9.46;100.00
6090;BME280;3073;42.660;23.316;2023-03-21T02:27:51;94336.09;;;9.57;100.00
6090;BME280;3073;42.660;23.316;2023-03-21T02:30:36;94335.53;;;9.72;100.00
6090;BME280;3073;42.660;23.316;2023-03-21T02:36:25;94329.25;;;9.79;100.00
6090;BME280;3073;42.660;23.316;2023-03-21T02:38:59;94333.28;;;9.75;100.00
6090;BME280;3073;42.660;23.316;2023-03-21T02:41:37;94335.56;;;9.94;100.00
6090;BME280;3073;42.660;23.316;2023-03-21T02:44:17;94325.31;;;10.10;100.00
6090;BME280;3073;42.660;23.316;2023-03-21T02:46:49;94325.69;;;10.19;100.00
6090;BME280;3073;42.660;23.316;2023-03-21T02:49:21;94328.84;;;10.26;100.00
6090;BME280;3073;42.660;23.316;2023-03-21T02:51:49;94322.88;;;10.37;100.00
6090;BME280;3073;42.660;23.316;2023-03-21T02:54:20;94323.63;;;10.38;100.00
6090;BME280;3073;42.660;23.316;2023-03-21T02:56:51;94322.31;;;10.35;100.00
6090;BME280;3073;42.660;23.316;2023-03-21T02:59:21;94323.78;;;10.31;100.00
6090;BME280;3073;42.660;23.316;2023-03-21T03:01:50;94323.44;;;10.22;100.00
6090;BME280;3073;42.660;23.316;2023-03-21T03:04:19;94325.03;;;10.07;100.00
6090;BME280;3073;42.660;23.316;2023-03-21T03:07:04;94334.97;;;10.08;100.00
6090;BME280;3073;42.660;23.316;2023-03-21T03:09:50;94335.16;;;9.63;100.00
6090;BME280;3073;42.660;23.316;2023-03-21T03:12:28;94336.84;;;9.58;100.00
6090;BME280;3073;42.660;23.316;2023-03-21T03:15:04;94328.50;;;9.62;100.00
6090;BME280;3073;42.660;23.316;2023-03-21T03:17:45;94337.31;;;9.55;100.00
6090;BME280;3073;42.660;23.316;2023-03-21T03:20:21;94334.84;;;9.43;100.00
6090;BME280;3073;42.660;23.316;2023-03-21T03:22:56;94343.28;;;9.44;100.00
6090;BME280;3073;42.660;23.316;2023-03-21T03:25:28;94338.09;;;9.22;100.00
6090;BME280;3073;42.660;23.316;2023-03-21T03:27:57;94339.38;;;9.08;100.00
6090;BME280;3073;42.660;23.316;2023-03-21T03:30:27;94337.44;;;8.98;100.00
6090;BME280;3073;42.660;23.316;2023-03-21T03:32:58;94335.78;;;9.04;100.00
6090;BME280;3073;42.660;23.316;2023-03-21T03:35:28;94338.19;;;8.82;100.00
6090;BME280;3073;42.660;23.316;2023-03-21T03:37:57;94344.97;;;8.76;100.00
6090;BME280;3073;42.660;23.316;2023-03-21T03:40:30;94344.06;;;8.83;100.00
6090;BME280;3073;42.660;23.316;2023-03-21T03:43:04;94344.19;;;8.76;100.00
6090;BME280;3073;42.660;23.316;2023-03-21T03:45:34;94339.31;;;8.74;100.00
6090;BME280;3073;42.660;23.316;2023-03-21T03:48:05;94339.47;;;8.68;100.00
6090;BME280;3073;42.660;23.316;2023-03-21T03:50:37;94337.69;;;8.68;100.00
6090;BME280;3073;42.660;23.316;2023-03-21T03:53:10;94339.88;;;8.76;100.00
6090;BME280;3073;42.660;23.316;2023-03-21T03:55:41;94341.28;;;8.84;100.00
6090;BME280;3073;42.660;23.316;2023-03-21T03:58:08;94333.63;;;8.84;100.00
6090;BME280;3073;42.660;23.316;2023-03-21T04:00:36;94336.81;;;8.91;100.00
6090;BME280;3073;42.660;23.316;2023-03-21T04:03:03;94334.53;;;9.06;100.00
6090;BME280;3073;42.660;23.316;2023-03-21T04:05:31;94321.72;;;9.18;100.00
6090;BME280;3073;42.660;23.316;2023-03-21T04:07:58;94329.31;;;9.29;100.00
6090;BME280;3073;42.660;23.316;2023-03-21T04:10:25;94326.97;;;9.28;100.00
6090;BME280;3073;42.660;23.316;2023-03-21T04:12:53;94326.34;;;9.38;100.00
6090;BME280;3073;42.660;23.316;2023-03-21T04:15:20;94332.31;;;9.43;100.00
6090;BME280;3073;42.660;23.316;2023-03-21T04:17:47;94327.75;;;9.45;100.00
6090;BME280;3073;42.660;23.316;2023-03-21T04:20:15;94325.19;;;9.45;100.00
6090;BME280;3073;42.660;23.316;2023-03-21T04:22:42;94320.06;;;9.40;100.00
6090;BME280;3073;42.660;23.316;2023-03-21T04:25:09;94319.19;;;9.35;100.00
6090;BME280;3073;42.660;23.316;2023-03-21T04:27:38;94324.06;;;9.36;100.00
6090;BME280;3073;42.660;23.316;2023-03-21T04:30:08;94317.25;;;9.25;100.00
6090;BME280;3073;42.660;23.316;2023-03-21T04:32:37;94315.28;;;9.27;100.00
6090;BME280;3073;42.660;23.316;2023-03-21T04:35:06;94321.56;;;9.24;100.00
6090;BME280;3073;42.660;23.316;2023-03-21T04:37:34;94323.75;;;9.16;100.00
6090;BME280;3073;42.660;23.316;2023-03-21T04:40:01;94334.53;;;9.06;100.00
6090;BME280;3073;42.660;23.316;2023-03-21T04:42:32;94332.50;;;8.92;100.00
6090;BME280;3073;42.660;23.316;2023-03-21T04:44:59;94333.84;;;8.66;100.00
6090;BME280;3073;42.660;23.316;2023-03-21T04:47:28;94328.75;;;8.38;100.00
6090;BME280;3073;42.660;23.316;2023-03-21T04:49:55;94335.19;;;8.28;100.00
6090;BME280;3073;42.660;23.316;2023-03-21T04:52:22;94331.06;;;8.39;100.00
6090;BME280;3073;42.660;23.316;2023-03-21T04:54:49;94339.69;;;8.38;100.00
6090;BME280;3073;42.660;23.316;2023-03-21T04:57:16;94335.06;;;8.35;100.00
6090;BME280;3073;42.660;23.316;2023-03-21T04:59:43;94340.91;;;8.36;100.00
6090;BME280;3073;42.660;23.316;2023-03-21T05:02:11;94337.47;;;8.42;100.00
6090;BME280;3073;42.660;23.316;2023-03-21T05:04:40;94336.84;;;8.23;100.00
6090;BME280;3073;42.660;23.316;2023-03-21T05:07:07;94344.88;;;8.43;100.00
6090;BME280;3073;42.660;23.316;2023-03-21T05:09:34;94342.94;;;8.62;100.00
6090;BME280;3073;42.660;23.316;2023-03-21T05:12:01;94341.41;;;8.77;100.00
6090;BME280;3073;42.660;23.316;2023-03-21T05:14:28;94345.84;;;8.99;100.00
6090;BME280;3073;42.660;23.316;2023-03-21T05:16:55;94346.56;;;9.11;100.00
6090;BME280;3073;42.660;23.316;2023-03-21T05:19:27;94349.81;;;9.23;100.00
6090;BME280;3073;42.660;23.316;2023-03-21T05:22:02;94351.81;;;9.38;100.00
6090;BME280;3073;42.660;23.316;2023-03-21T05:24:30;94349.97;;;9.50;100.00
6090;BME280;3073;42.660;23.316;2023-03-21T05:26:59;94350.91;;;9.60;100.00
6090;BME280;3073;42.660;23.316;2023-03-21T05:29:28;94348.19;;;9.67;100.00
6090;BME280;3073;42.660;23.316;2023-03-21T05:31:59;94346.53;;;9.77;100.00
6090;BME280;3073;42.660;23.316;2023-03-21T05:34:27;94347.81;;;9.58;100.00
6090;BME280;3073;42.660;23.316;2023-03-21T05:36:55;94348.88;;;9.62;100.00
6090;BME280;3073;42.660;23.316;2023-03-21T05:39:25;94355.03;;;9.83;100.00
6090;BME280;3073;42.660;23.316;2023-03-21T05:41:52;94351.75;;;10.04;100.00
6090;BME280;3073;42.660;23.316;2023-03-21T05:44:19;94347.66;;;10.20;100.00
6090;BME280;3073;42.660;23.316;2023-03-21T05:46:46;94345.81;;;10.37;100.00
6090;BME280;3073;42.660;23.316;2023-03-21T05:49:12;94343.72;;;10.56;100.00
6090;BME280;3073;42.660;23.316;2023-03-21T05:51:39;94334.44;;;10.71;100.00
6090;BME280;3073;42.660;23.316;2023-03-21T05:54:06;94340.03;;;10.95;100.00
6090;BME280;3073;42.660;23.316;2023-03-21T05:56:34;94336.44;;;11.23;100.00
6090;BME280;3073;42.660;23.316;2023-03-21T05:59:01;94330.00;;;11.47;100.00
6090;BME280;3073;42.660;23.316;2023-03-21T06:01:28;94327.56;;;11.67;98.25
6090;BME280;3073;42.660;23.316;2023-03-21T06:03:55;94325.06;;;11.72;97.32
6090;BME280;3073;42.660;23.316;2023-03-21T06:06:22;94321.53;;;11.78;98.53
6090;BME280;3073;42.660;23.316;2023-03-21T06:08:48;94326.47;;;11.95;98.04
6090;BME280;3073;42.660;23.316;2023-03-21T06:11:22;94325.28;;;12.13;95.64
6090;BME280;3073;42.660;23.316;2023-03-21T06:13:51;94315.38;;;12.31;90.68
6090;BME280;3073;42.660;23.316;2023-03-21T06:16:18;94315.69;;;12.45;86.83
6090;BME280;3073;42.660;23.316;2023-03-21T06:18:44;94310.72;;;12.18;85.24
6090;BME280;3073;42.660;23.316;2023-03-21T06:21:11;94315.41;;;11.84;85.97
6090;BME280;3073;42.660;23.316;2023-03-21T06:23:38;94317.56;;;12.03;85.26
6090;BME280;3073;42.660;23.316;2023-03-21T06:26:06;94317.66;;;12.23;86.38
6090;BME280;3073;42.660;23.316;2023-03-21T06:28:33;94309.25;;;12.37;85.38
6090;BME280;3073;42.660;23.316;2023-03-21T06:31:01;94306.00;;;12.62;83.63
6090;BME280;3073;42.660;23.316;2023-03-21T06:33:27;94308.34;;;12.84;81.90
6090;BME280;3073;42.660;23.316;2023-03-21T06:35:56;94310.41;;;13.02;80.39
6090;BME280;3073;42.660;23.316;2023-03-21T06:38:23;94312.25;;;13.27;78.43
6090;BME280;3073;42.660;23.316;2023-03-21T06:40:51;94313.50;;;13.45;77.48
6090;BME280;3073;42.660;23.316;2023-03-21T06:43:18;94316.84;;;13.45;76.75
6090;BME280;3073;42.660;23.316;2023-03-21T06:45:45;94321.72;;;13.57;76.97
6090;BME280;3073;42.660;23.316;2023-03-21T06:48:13;94326.06;;;13.66;77.32
6090;BME280;3073;42.660;23.316;2023-03-21T06:50:41;94326.06;;;13.51;76.85
6090;BME280;3073;42.660;23.316;2023-03-21T06:53:08;94322.50;;;13.67;75.82
6090;BME280;3073;42.660;23.316;2023-03-21T06:55:35;94321.66;;;13.97;73.83
6090;BME280;3073;42.660;23.316;2023-03-21T06:58:02;94336.78;;;13.93;73.30
6090;BME280;3073;42.660;23.316;2023-03-21T07:00:29;94335.44;;;14.16;71.58
6090;BME280;3073;42.660;23.316;2023-03-21T07:02:56;94325.50;;;14.00;71.73
6090;BME280;3073;42.660;23.316;2023-03-21T07:05:24;94335.03;;;14.58;69.05
6090;BME280;3073;42.660;23.316;2023-03-21T07:07:51;94338.22;;;14.94;67.33
6090;BME280;3073;42.660;23.316;2023-03-21T07:10:18;94341.72;;;15.42;65.22
6090;BME280;3073;42.660;23.316;2023-03-21T07:12:45;94328.91;;;15.71;62.74
6090;BME280;3073;42.660;23.316;2023-03-21T07:15:12;94337.56;;;15.80;61.72
6090;BME280;3073;42.660;23.316;2023-03-21T07:17:38;94335.81;;;15.75;60.76
6090;BME280;3073;42.660;23.316;2023-03-21T07:20:06;94340.41;;;15.50;61.01
6090;BME280;3073;42.660;23.316;2023-03-21T07:22:35;94347.84;;;15.46;59.72
6090;BME280;3073;42.660;23.316;2023-03-21T07:25:02;94347.47;;;15.29;59.78
6090;BME280;3073;42.660;23.316;2023-03-21T07:27:29;94332.38;;;15.56;59.28
6090;BME280;3073;42.660;23.316;2023-03-21T07:29:56;94342.19;;;15.49;59.30
6090;BME280;3073;42.660;23.316;2023-03-21T07:32:23;94338.25;;;15.23;59.68
6090;BME280;3073;42.660;23.316;2023-03-21T07:34:54;94338.13;;;15.38;59.31
6090;BME280;3073;42.660;23.316;2023-03-21T07:37:21;94338.91;;;15.38;59.84
6090;BME280;3073;42.660;23.316;2023-03-21T07:39:49;94338.28;;;15.57;59.64
6090;BME280;3073;42.660;23.316;2023-03-21T07:42:16;94339.63;;;15.78;59.24
6090;BME280;3073;42.660;23.316;2023-03-21T07:44:44;94330.91;;;16.26;57.95
6090;BME280;3073;42.660;23.316;2023-03-21T07:47:10;94338.03;;;16.34;56.75
6090;BME280;3073;42.660;23.316;2023-03-21T07:49:37;94336.53;;;16.05;56.80
6090;BME280;3073;42.660;23.316;2023-03-21T07:52:04;94338.44;;;15.70;57.92
6090;BME280;3073;42.660;23.316;2023-03-21T07:54:32;94346.41;;;15.69;58.70
6090;BME280;3073;42.660;23.316;2023-03-21T07:57:01;94336.16;;;15.92;58.17
6090;BME280;3073;42.660;23.316;2023-03-21T07:59:29;94337.59;;;16.04;58.03
6090;BME280;3073;42.660;23.316;2023-03-21T08:01:56;94336.59;;;16.00;58.27
6090;BME280;3073;42.660;23.316;2023-03-21T08:04:23;94339.56;;;16.12;58.33
6090;BME280;3073;42.660;23.316;2023-03-21T08:06:50;94340.78;;;16.19;57.38
6090;BME280;3073;42.660;23.316;2023-03-21T08:09:17;94342.50;;;15.76;57.88
6090;BME280;3073;42.660;23.316;2023-03-21T08:11:44;94331.03;;;15.64;58.47
6090;BME280;3073;42.660;23.316;2023-03-21T08:14:12;94340.81;;;15.62;57.97
6090;BME280;3073;42.660;23.316;2023-03-21T08:16:39;94336.09;;;15.01;58.93
6090;BME280;3073;42.660;23.316;2023-03-21T08:19:06;94339.22;;;14.93;59.92
6090;BME280;3073;42.660;23.316;2023-03-21T08:21:32;94334.63;;;14.90;60.07
6090;BME280;3073;42.660;23.316;2023-03-21T08:23:59;94328.41;;;15.35;59.52
6090;BME280;3073;42.660;23.316;2023-03-21T08:26:26;94329.00;;;15.61;59.13
6090;BME280;3073;42.660;23.316;2023-03-21T08:28:53;94322.47;;;15.73;59.49
6090;BME280;3073;42.660;23.316;2023-03-21T08:31:21;94321.72;;;15.96;57.79
6090;BME280;3073;42.660;23.316;2023-03-21T08:33:48;94332.28;;;16.19;57.16
6090;BME280;3073;42.660;23.316;2023-03-21T08:36:19;94333.38;;;16.13;56.19
6090;BME280;3073;42.660;23.316;2023-03-21T08:38:46;94322.72;;;16.01;56.87
6090;BME280;3073;42.660;23.316;2023-03-21T08:41:13;94328.00;;;16.33;55.80
6090;BME280;3073;42.660;23.316;2023-03-21T08:43:40;94332.16;;;16.53;54.80
6090;BME280;3073;42.660;23.316;2023-03-21T08:46:07;94337.16;;;16.86;54.16
6090;BME280;3073;42.660;23.316;2023-03-21T08:48:35;94331.03;;;16.82;53.74
6090;BME280;3073;42.660;23.316;2023-03-21T08:51:03;94328.06;;;17.26;53.30
6090;BME280;3073;42.660;23.316;2023-03-21T08:53:31;94333.84;;;17.37;52.58
6090;BME280;3073;42.660;23.316;2023-03-21T08:55:58;94319.50;;;17.31;52.29
6090;BME280;3073;42.660;23.316;2023-03-21T08:58:25;94321.53;;;17.34;52.20
6090;BME280;3073;42.660;23.316;2023-03-21T09:00:52;94318.78;;;17.25;52.13
6090;BME280;3073;42.660;23.316;2023-03-21T09:03:19;94323.38;;;17.47;52.38
6090;BME280;3073;42.660;23.316;2023-03-21T09:05:48;94314.66;;;17.43;51.73
6090;BME280;3073;42.660;23.316;2023-03-21T09:08:14;94315.63;;;17.47;51.45
6090;BME280;3073;42.660;23.316;2023-03-21T09:10:42;94309.56;;;17.38;51.50
6090;BME280;3073;42.660;23.316;2023-03-21T09:13:09;94316.84;;;17.36;50.34
6090;BME280;3073;42.660;23.316;2023-03-21T09:15:36;94312.44;;;17.04;50.62
6090;BME280;3073;42.660;23.316;2023-03-21T09:18:03;94306.50;;;16.85;51.52
6090;BME280;3073;42.660;23.316;2023-03-21T09:20:39;94307.41;;;16.94;51.66
6090;BME280;3073;42.660;23.316;2023-03-21T09:23:08;94299.25;;;17.06;51.15
6090;BME280;3073;42.660;23.316;2023-03-21T09:25:36;94292.16;;;16.97;51.86
6090;BME280;3073;42.660;23.316;2023-03-21T09:28:03;94283.59;;;17.34;51.70
6090;BME280;3073;42.660;23.316;2023-03-21T09:30:31;94286.69;;;17.50;51.60
6090;BME280;3073;42.660;23.316;2023-03-21T09:32:59;94283.13;;;17.78;50.95
6090;BME280;3073;42.660;23.316;2023-03-21T09:35:28;94284.47;;;17.89;50.29
6090;BME280;3073;42.660;23.316;2023-03-21T09:37:55;94284.47;;;18.17;49.67
6090;BME280;3073;42.660;23.316;2023-03-21T09:40:34;94271.63;;;18.39;48.94
6090;BME280;3073;42.660;23.316;2023-03-21T09:43:11;94270.06;;;18.65;47.96
6090;BME280;3073;42.660;23.316;2023-03-21T09:45:48;94262.66;;;18.36;48.19
6090;BME280;3073;42.660;23.316;2023-03-21T09:48:23;94259.56;;;18.48;47.97
6090;BME280;3073;42.660;23.316;2023-03-21T09:50:56;94266.78;;;18.24;47.55
6090;BME280;3073;42.660;23.316;2023-03-21T09:53:27;94273.88;;;17.91;48.46
6090;BME280;3073;42.660;23.316;2023-03-21T09:55:58;94268.03;;;18.13;48.02
6090;BME280;3073;42.660;23.316;2023-03-21T09:58:29;94260.00;;;18.28;47.94
6090;BME280;3073;42.660;23.316;2023-03-21T10:01:02;94262.84;;;18.26;47.73
6090;BME280;3073;42.660;23.316;2023-03-21T10:03:43;94264.00;;;18.34;48.27
6090;BME280;3073;42.660;23.316;2023-03-21T10:06:13;94257.50;;;18.50;47.69
6090;BME280;3073;42.660;23.316;2023-03-21T10:08:42;94255.44;;;18.74;46.76
6090;BME280;3073;42.660;23.316;2023-03-21T10:11:20;94251.91;;;18.92;46.45
6090;BME280;3073;42.660;23.316;2023-03-21T10:13:54;94242.97;;;19.21;46.35
6090;BME280;3073;42.660;23.316;2023-03-21T10:16:27;94245.13;;;19.89;45.54
6090;BME280;3073;42.660;23.316;2023-03-21T10:18:54;94238.47;;;20.87;43.47
6090;BME280;3073;42.660;23.316;2023-03-21T10:21:22;94234.28;;;21.46;42.64
6090;BME280;3073;42.660;23.316;2023-03-21T10:23:52;94238.16;;;22.37;41.55
6090;BME280;3073;42.660;23.316;2023-03-21T10:26:23;94241.81;;;23.06;39.64
6090;BME280;3073;42.660;23.316;2023-03-21T10:28:53;94231.66;;;23.58;39.38
6090;BME280;3073;42.660;23.316;2023-03-21T10:31:23;94238.84;;;23.86;37.53
6090;BME280;3073;42.660;23.316;2023-03-21T10:33:51;94234.50;;;23.33;38.08
6090;BME280;3073;42.660;23.316;2023-03-21T10:36:21;94241.81;;;20.96;40.11
6090;BME280;3073;42.660;23.316;2023-03-21T10:38:53;94247.00;;;21.14;40.75
6090;BME280;3073;42.660;23.316;2023-03-21T10:41:22;94243.47;;;21.27;40.38
6090;BME280;3073;42.660;23.316;2023-03-21T10:44:04;94245.47;;;20.78;40.05
6090;BME280;3073;42.660;23.316;2023-03-21T10:46:32;94250.97;;;20.68;40.25
6090;BME280;3073;42.660;23.316;2023-03-21T10:49:00;94241.34;;;20.43;40.50
6090;BME280;3073;42.660;23.316;2023-03-21T10:51:30;94244.53;;;20.31;40.69
6090;BME280;3073;42.660;23.316;2023-03-21T10:54:00;94241.34;;;20.51;40.01
6090;BME280;3073;42.660;23.316;2023-03-21T10:56:36;94239.63;;;20.30;40.81
6090;BME280;3073;42.660;23.316;2023-03-21T10:59:05;94232.06;;;20.76;40.41
6090;BME280;3073;42.660;23.316;2023-03-21T11:01:36;94223.66;;;20.96;40.23
6090;BME280;3073;42.660;23.316;2023-03-21T11:04:11;94222.28;;;21.25;39.91
6090;BME280;3073;42.660;23.316;2023-03-21T11:06:41;94221.69;;;20.76;40.25
6090;BME280;3073;42.660;23.316;2023-03-21T11:09:13;94213.75;;;20.90;39.97
6090;BME280;3073;42.660;23.316;2023-03-21T11:11:49;94214.34;;;21.21;39.31
6090;BME280;3073;42.660;23.316;2023-03-21T11:14:34;94215.69;;;21.19;38.93
6090;BME280;3073;42.660;23.316;2023-03-21T11:17:17;94209.31;;;20.90;39.19
6090;BME280;3073;42.660;23.316;2023-03-21T11:19:47;94217.84;;;21.08;38.61
6090;BME280;3073;42.660;23.316;2023-03-21T11:22:14;94205.66;;;21.00;39.27
6090;BME280;3073;42.660;23.316;2023-03-21T11:24:44;94209.97;;;21.51;38.66
6090;BME280;3073;42.660;23.316;2023-03-21T11:27:15;94194.19;;;22.02;38.40
6090;BME280;3073;42.660;23.316;2023-03-21T11:29:46;94192.91;;;22.08;38.28
6090;BME280;3073;42.660;23.316;2023-03-21T11:32:20;94181.41;;;22.39;37.42
6090;BME280;3073;42.660;23.316;2023-03-21T11:34:49;94182.63;;;22.41;37.40
6090;BME280;3073;42.660;23.316;2023-03-21T11:37:23;94180.41;;;22.31;37.44
6090;BME280;3073;42.660;23.316;2023-03-21T11:39:54;94166.31;;;22.12;37.50
6090;BME280;3073;42.660;23.316;2023-03-21T11:42:27;94170.44;;;21.83;38.12
6090;BME280;3073;42.660;23.316;2023-03-21T11:45:06;94173.28;;;21.61;38.84
6090;BME280;3073;42.660;23.316;2023-03-21T11:47:36;94166.16;;;20.77;38.86
6090;BME280;3073;42.660;23.316;2023-03-21T11:50:14;94167.38;;;20.63;40.12
6090;BME280;3073;42.660;23.316;2023-03-21T11:52:47;94166.47;;;20.50;40.18
6090;BME280;3073;42.660;23.316;2023-03-21T11:55:23;94169.94;;;20.88;40.18
6090;BME280;3073;42.660;23.316;2023-03-21T11:58:01;94164.19;;;20.74;40.47
6090;BME280;3073;42.660;23.316;2023-03-21T12:00:34;94166.47;;;20.67;40.29
6090;BME280;3073;42.660;23.316;2023-03-21T12:03:23;94161.28;;;20.84;39.81
6090;BME280;3073;42.660;23.316;2023-03-21T12:05:57;94158.25;;;20.57;38.83
6090;BME280;3073;42.660;23.316;2023-03-21T12:08:34;94152.47;;;20.51;39.66
6090;BME280;3073;42.660;23.316;2023-03-21T12:11:10;94144.06;;;20.37;40.01
6090;BME280;3073;42.660;23.316;2023-03-21T12:13:49;94139.16;;;20.10;39.52
6090;BME280;3073;42.660;23.316;2023-03-21T12:16:42;94141.31;;;20.25;40.07
6090;BME280;3073;42.660;23.316;2023-03-21T12:19:20;94134.63;;;20.41;39.44
6090;BME280;3073;42.660;23.316;2023-03-21T12:21:58;94139.81;;;20.41;39.57
6090;BME280;3073;42.660;23.316;2023-03-21T12:24:31;94140.13;;;20.31;39.55
6090;BME280;3073;42.660;23.316;2023-03-21T12:27:07;94138.72;;;20.25;40.06
6090;BME280;3073;42.660;23.316;2023-03-21T12:30:01;94128.97;;;20.39;39.40
6090;BME280;3073;42.660;23.316;2023-03-21T12:32:44;94125.59;;;20.13;40.31
6090;BME280;3073;42.660;23.316;2023-03-21T12:35:27;94131.13;;;20.54;39.67
6090;BME280;3073;42.660;23.316;2023-03-21T12:38:07;94122.69;;;20.66;39.29
6090;BME280;3073;42.660;23.316;2023-03-21T12:43:41;94129.84;;;19.91;39.87
6090;BME280;3073;42.660;23.316;2023-03-21T12:46:16;94126.31;;;19.79;39.77
6090;BME280;3073;42.660;23.316;2023-03-21T12:48:48;94114.13;;;19.71;40.19
6090;BME280;3073;42.660;23.316;2023-03-21T12:51:18;94113.53;;;19.82;40.45
6090;BME280;3073;42.660;23.316;2023-03-21T12:53:55;94113.22;;;19.84;40.27
6090;BME280;3073;42.660;23.316;2023-03-21T12:56:28;94110.00;;;19.61;39.94
6090;BME280;3073;42.660;23.316;2023-03-21T12:58:59;94106.19;;;19.76;40.50
6090;BME280;3073;42.660;23.316;2023-03-21T13:01:29;94098.44;;;19.67;40.64
6090;BME280;3073;42.660;23.316;2023-03-21T13:04:20;94094.19;;;19.71;41.19
6090;BME280;3073;42.660;23.316;2023-03-21T13:06:55;94091.47;;;19.37;41.03
6090;BME280;3073;42.660;23.316;2023-03-21T13:09:28;94097.34;;;19.20;41.18
6090;BME280;3073;42.660;23.316;2023-03-21T13:11:58;94087.28;;;19.19;40.95
6090;BME280;3073;42.660;23.316;2023-03-21T13:14:34;94082.59;;;18.81;41.77
6090;BME280;3073;42.660;23.316;2023-03-21T13:17:10;94079.06;;;18.55;41.46
6090;BME280;3073;42.660;23.316;2023-03-21T13:19:42;94084.06;;;18.51;41.29
6090;BME280;3073;42.660;23.316;2023-03-21T13:22:21;94086.00;;;18.68;41.68
6090;BME280;3073;42.660;23.316;2023-03-21T13:24:57;94085.03;;;18.86;41.80
6090;BME280;3073;42.660;23.316;2023-03-21T13:27:27;94075.78;;;18.19;42.54
6090;BME280;3073;42.660;23.316;2023-03-21T13:29:58;94079.94;;;18.06;42.87
6090;BME280;3073;42.660;23.316;2023-03-21T13:32:29;94072.88;;;17.98;43.58
6090;BME280;3073;42.660;23.316;2023-03-21T13:34:59;94075.41;;;18.12;43.59
6090;BME280;3073;42.660;23.316;2023-03-21T13:37:30;94067.44;;;18.22;43.76